Largo — PFNC — position and weather

sailwx.info

Track history (hours):
 
Tides and Currents Weather Stations Pressure Air Temp Water Temp Dewpoint Dewpoint Depression Visibility Wind Speed Wind Dir Waves Ship Positions

Largo

Last reported at 2016-May-04 10:30 UTC. Time now 2016-May-05 16:17 UTC.
Position N 38°17' E 003°18'.

Length 91 m; draft 5.8 m.

Type: Cargo ship. MMSI: 245645000.

Date/timePositionNaut miles runAvg speedWind from/ knotsBaromVisibWave heightAir tempDewpointWater temp
2016-May-04 10:30N 38°17' E 003°18'10 8.2
2016-May-04 09:19N 38°22' E 003°08'8 8.3
2016-May-04 08:20N 38°27' E 002°60'7 8.2
2016-May-04 07:31N 38°31' E 002°52'8 8.2
2016-May-04 06:33N 38°35' E 002°44'8 8.4
2016-May-04 05:33N 38°40' E 002°35'10 8.3
2016-May-04 04:18N 38°46' E 002°25'6 8.4
2016-May-04 03:33N 38°50' E 002°18'8 8.4
2016-May-04 02:33N 38°54' E 002°09'8 8.4
2016-May-04 01:33N 38°59' E 001°60'8 8.5
2016-May-04 00:33N 39°04' E 001°51'9 8.6
2016-May-03 23:33N 39°08' E 001°42'18 8.7
2016-May-03 21:30N 39°18' E 001°23'8 8.3
2016-May-03 20:30N 39°23' E 001°14'54 8.5
2016-May-03 14:11N 39°52' E 000°15'10 8.8
2016-May-03 13:04N 39°57' E 000°04'  
2016-Apr-29 08:33N 38°00' W 000°23'13 9.5
2016-Apr-29 07:13N 37°47' W 000°22'7 9.5
2016-Apr-29 06:28N 37°40' W 000°22'  
2016-Apr-26 22:33N 35°57' W 000°05'1 0.3
2016-Apr-26 19:33N 35°57' W 000°04'1 0.9
2016-Apr-26 18:33N 35°58' W 000°03'4 4.2
2016-Apr-26 17:34N 36°01' W 000°00'17 8.3
2016-Apr-26 15:33N 36°13' E 000°14'8 8.2
2016-Apr-26 14:34N 36°18' E 000°22'8 7.5
2016-Apr-26 13:30N 36°22' E 000°31'7 6.9
2016-Apr-26 12:33N 36°25' E 000°38'8 7.0
2016-Apr-26 11:27N 36°29' E 000°47'8 6.9
2016-Apr-26 10:21N 36°32' E 000°55'6 7.2
2016-Apr-26 09:29N 36°33' E 001°03'  
Track history (hours):
 
Tides and Currents Weather Stations Pressure Air Temp Water Temp Dewpoint Dewpoint Depression Visibility Wind Speed Wind Dir Waves Ship Positions

Largo

Last reported at 2016-May-04 10:30 UTC. Time now 2016-May-05 16:17 UTC.
Position N 38°17' E 003°18'.

Length 91 m; draft 5.8 m.

Type: Cargo ship. MMSI: 245645000.

Date/timePositionNaut miles runAvg speedWind from/ knotsBaromVisibWave heightAir tempDewpointWater temp
2016-May-04 10:30N 38°17' E 003°18'10 8.2
2016-May-04 09:19N 38°22' E 003°08'8 8.3
2016-May-04 08:20N 38°27' E 002°60'7 8.2
2016-May-04 07:31N 38°31' E 002°52'8 8.2
2016-May-04 06:33N 38°35' E 002°44'8 8.4
2016-May-04 05:33N 38°40' E 002°35'10 8.3
2016-May-04 04:18N 38°46' E 002°25'6 8.4
2016-May-04 03:33N 38°50' E 002°18'8 8.4
2016-May-04 02:33N 38°54' E 002°09'8 8.4
2016-May-04 01:33N 38°59' E 001°60'8 8.5
2016-May-04 00:33N 39°04' E 001°51'9 8.6
2016-May-03 23:33N 39°08' E 001°42'18 8.7
2016-May-03 21:30N 39°18' E 001°23'8 8.3
2016-May-03 20:30N 39°23' E 001°14'54 8.5
2016-May-03 14:11N 39°52' E 000°15'10 8.8
2016-May-03 13:04N 39°57' E 000°04'  
2016-Apr-29 08:33N 38°00' W 000°23'13 9.5
2016-Apr-29 07:13N 37°47' W 000°22'7 9.5
2016-Apr-29 06:28N 37°40' W 000°22'  
2016-Apr-26 22:33N 35°57' W 000°05'1 0.3
2016-Apr-26 19:33N 35°57' W 000°04'1 0.9
2016-Apr-26 18:33N 35°58' W 000°03'4 4.2
2016-Apr-26 17:34N 36°01' W 000°00'17 8.3
2016-Apr-26 15:33N 36°13' E 000°14'8 8.2
2016-Apr-26 14:34N 36°18' E 000°22'8 7.5
2016-Apr-26 13:30N 36°22' E 000°31'7 6.9
2016-Apr-26 12:33N 36°25' E 000°38'8 7.0
2016-Apr-26 11:27N 36°29' E 000°47'8 6.9
2016-Apr-26 10:21N 36°32' E 000°55'6 7.2
2016-Apr-26 09:29N 36°33' E 001°03'  

Dump ship's entire track history